Latest Coastal Weather Observations for St Helens

IDT60701

Issued at 11:52 am EDT Saturday 31 January 2015 (issued every 10 minutes, with the page automatically refreshed every 10 minutes)

About coastal observations | Map of coastal stations | Coastal observations for TAS | Marine services | Other Formats
Station Details ID: 092120 Name: ST HELENS AERODROME Lat: -41.34 Lon: 148.28 Height: 48.0 m
Data from the previous 72 hours. | See also: Recent months at St Helens
Date/Time
EDT
Temp

°C
Wind Pressure Rain
since 9am
mm
Weather Cloud Vis
km
Sea
Height
m
Swell
Dir
 
Speed
knots
Gust
knots
hPa Trend Height
m
Period
s
Dir
31/11:45am 18.1 S 15 26 1007.7 - 0.0 - Cloudy 10 - - - -
31/11:30am 18.7 S 11 21 1007.5 - 0.0 - Cloudy 10 - - - -
31/11:00am 18.1 S 14 25 1007.6 - 0.0 - Cloudy 10 - - - -
31/10:32am 17.9 S 15 25 1007.7 - 0.0 - Cloudy 10 - - - -
31/10:30am 18.1 S 14 24 1007.8 - 0.0 - Cloudy 10 - - - -
31/10:00am 18.2 S 11 21 1007.7 - 0.0 - Cloudy 10 - - - -
31/09:30am 17.0 S 9 18 1007.8 - 0.0 - Cloudy 10 - - - -
31/09:00am 16.6 S 12 20 1007.6 - 0.0 - Cloudy 10 - - - -
31/08:30am 16.5 S 10 18 1007.7 - 0.0 - Cloudy 10 - - - -
31/08:00am 16.1 S 10 17 1007.6 - 0.0 - Cloudy 10 - - - -
31/07:30am 16.0 S 10 15 1007.4 - 0.0 - Cloudy 10 - - - -
31/07:00am 15.7 S 11 20 1007.5 - 0.0 - Cloudy 10 - - - -
31/06:30am 15.7 S 11 21 1007.4 - 0.0 - Cloudy 10 - - - -
31/06:00am 15.6 S 9 22 1007.2 - 0.0 - Cloudy 10 - - - -
31/05:30am 15.5 S 8 14 1007.0 - 0.0 - Partly cloudy 10 - - - -
31/05:00am 15.0 SSW 7 12 1006.8 - 0.0 - Partly cloudy 10 - - - -
31/04:30am 15.0 SSW 7 11 1007.0 - 0.0 - Partly cloudy 10 - - - -
31/04:00am 15.2 S 10 17 1007.2 - 0.0 - Partly cloudy 10 - - - -
31/03:30am 15.1 S 10 20 1007.4 - 0.0 - Cloudy 10 - - - -
31/03:00am 15.0 S 10 16 1007.6 - 0.0 - Cloudy 10 - - - -
31/02:30am 15.0 S 10 18 1007.8 - 0.0 - Partly cloudy 10 - - - -
31/02:00am 15.1 S 11 22 1008.3 - 0.0 - Partly cloudy 10 - - - -
31/01:30am 14.9 S 11 19 1008.8 - 0.0 - Partly cloudy 10 - - - -
31/01:00am 14.9 S 8 13 1009.2 - 0.0 - Partly cloudy 10 - - - -
31/12:30am 15.0 S 11 18 1009.3 - 0.0 - Partly cloudy 10 - - - -
31/12:00am 14.8 S 9 16 1009.6 - 0.0 - Partly cloudy 10 - - - -
 
Date/Time
EDT
Temp

°C
Wind Pressure Rain
since 9am
mm
Weather Cloud Vis
km
Sea
Height
m
Swell
Dir
 
Speed
knots
Gust
knots
hPa Trend Height
m
Period
s
Dir
30/11:30pm 14.7 S 12 18 1010.0 - 0.0 - Cloudy 10 - - - -
30/11:00pm 14.5 S 9 16 1010.2 - 0.0 - Partly cloudy 10 - - - -
30/10:30pm 14.7 S 10 18 1010.6 - 0.0 - Partly cloudy 10 - - - -
30/10:00pm 14.7 S 11 17 1010.8 - 0.0 - Partly cloudy 10 - - - -
30/09:30pm 14.6 S 10 20 1011.0 - 0.0 - Partly cloudy 10 - - - -
30/09:00pm 14.8 S 11 21 1010.8 - 0.0 - Cloudy 10 - - - -
30/08:30pm 14.9 S 8 15 1011.2 - 0.0 - Cloudy 10 - - - -
30/08:00pm 15.1 S 8 17 1011.1 - 0.0 - Cloudy 10 - - - -
30/07:30pm 15.5 SSW 12 23 1011.1 - 0.0 - Cloudy 10 - - - -
30/07:00pm 15.5 S 12 21 1011.2 - 0.0 - Partly cloudy 10 - - - -
30/06:30pm 15.6 S 10 22 1011.4 - 0.0 - Partly cloudy 10 - - - -
30/06:00pm 15.4 S 12 22 1011.4 - 0.0 - Cloudy 10 - - - -
30/05:30pm 15.7 S 14 27 1011.8 - 0.0 - Partly cloudy 10 - - - -
30/05:15pm 15.5 S 15 25 1011.9 - 0.0 - Partly cloudy 10 - - - -
30/05:00pm 15.8 S 14 24 1012.0 - 0.0 - Partly cloudy 10 - - - -
30/04:36pm 15.2 S 15 26 1012.2 - 0.0 - Partly cloudy 10 - - - -
30/04:30pm 15.6 S 12 23 1012.3 - 0.0 - Partly cloudy 10 - - - -
30/04:18pm 15.7 S 15 27 1012.3 - 0.0 - Partly cloudy 10 - - - -
30/04:00pm 15.9 S 14 27 1012.3 - 0.0 - Partly cloudy 10 - - - -
30/03:30pm 16.3 S 17 33 1012.3 - 0.0 - Partly cloudy 10 - - - -
30/03:00pm 16.7 S 16 30 1012.4 - 0.0 - Cloudy 10 - - - -
30/02:30pm 16.2 S 17 28 1012.9 - 0.0 - Partly cloudy 10 - - - -
30/02:04pm 15.8 S 15 27 1013.1 - 0.0 - Partly cloudy 10 - - - -
30/02:00pm 15.9 S 14 23 1013.2 - 0.0 - Cloudy 10 - - - -
30/01:30pm 15.7 S 16 28 1013.3 - 0.0 - Partly cloudy 10 - - - -
30/01:00pm 16.0 S 15 26 1013.6 - 0.0 - Partly cloudy 10 - - - -
30/12:30pm 15.3 S 19 32 1013.8 - 0.0 - Cloudy 10 - - - -
30/12:00pm 14.9 S 15 29 1013.9 - 0.0 - Cloudy 10 - - - -
30/11:36am 14.7 S 15 26 1014.4 - 0.0 - Partly cloudy 10 - - - -
30/11:30am 15.0 S 14 26 1014.6 - 0.0 - Partly cloudy 10 - - - -
30/11:02am 14.6 S 15 29 1014.6 - 0.0 - Cloudy 10 - - - -
30/11:00am 14.7 S 14 29 1014.6 - 0.0 - Cloudy 10 - - - -
30/10:30am 15.4 S 16 27 1014.6 - 0.0 - Partly cloudy 10 - - - -
30/10:09am 14.6 S 15 30 1014.9 - 0.0 - Partly cloudy 10 - - - -
30/10:00am 14.5 S 13 26 1015.0 - 0.0 - Partly cloudy 10 - - - -
30/09:36am 14.1 S 15 28 1015.2 - 0.0 - Partly cloudy 10 - - - -
30/09:30am 14.3 S 13 22 1015.2 - 0.0 - Partly cloudy 10 - - - -
30/09:00am 14.4 S 13 25 1015.0 - 2.0 Distant precip. Mostly cloudy 25 - - - -
30/08:30am 13.5 S 16 27 1015.4 - 2.0 - Partly cloudy 10 - - - -
30/08:27am 13.6 S 15 25 1015.4 - 2.0 - Partly cloudy 10 - - - -
30/08:00am 13.6 S 13 28 1015.4 - 2.0 - Cloudy 10 - - - -
30/07:30am 13.5 S 13 24 1015.3 - 2.0 - Cloudy 10 - - - -
30/07:02am 13.3 S 15 30 1015.3 - 2.0 - Cloudy 10 - - - -
30/07:00am 13.2 S 14 30 1015.3 - 2.0 - Cloudy 10 - - - -
30/06:30am 13.1 S 13 24 1015.4 - 2.0 - Cloudy 10 - - - -
30/06:25am 13.1 S 15 26 1015.4 - 2.0 - Cloudy 10 - - - -
30/06:00am 13.1 S 14 22 1015.3 - 2.0 - Cloudy 10 - - - -
30/05:30am 13.2 S 14 23 1015.5 - 2.0 - Cloudy 10 - - - -
30/05:00am 13.1 S 11 21 1015.6 - 2.0 - Cloudy 10 - - - -
30/04:30am 12.8 S 14 26 1015.7 - 2.0 - Partly cloudy 10 - - - -
30/04:02am 12.0 S 15 29 1016.0 - 2.0 - Partly cloudy 10 - - - -
30/04:00am 12.0 S 14 29 1016.1 - 2.0 - Partly cloudy 9 - - - -
30/03:30am 13.2 S 15 26 1016.4 - 2.0 - Partly cloudy 10 - - - -
30/03:00am 12.6 S 12 21 1016.4 - 2.0 - Cloudy 10 - - - -
30/02:30am 12.7 S 13 21 1016.9 - 2.0 - Partly cloudy 10 - - - -
30/02:00am 12.5 S 11 23 1017.2 - 2.0 - Partly cloudy 10 - - - -
30/01:30am 12.7 S 12 24 1017.6 - 2.0 - Partly cloudy 10 - - - -
30/01:00am 12.7 S 11 18 1018.0 - 2.0 - Partly cloudy 10 - - - -
30/12:30am 12.8 S 12 21 1018.2 - 2.0 - Partly cloudy 10 - - - -
30/12:00am 12.7 SSW 10 17 1018.3 - 2.0 - Cloudy 10 - - - -
 
Date/Time
EDT
Temp

°C
Wind Pressure Rain
since 9am
mm
Weather Cloud Vis
km
Sea
Height
m
Swell
Dir
 
Speed
knots
Gust
knots
hPa Trend Height
m
Period
s
Dir
29/11:30pm 12.8 S 13 24 1018.9 - 2.0 - Partly cloudy 10 - - - -
29/11:00pm 13.1 S 11 23 1019.5 - 2.0 - Partly cloudy 10 - - - -
29/10:30pm 13.1 S 12 21 1019.7 - 2.0 - Cloudy 10 - - - -
29/10:00pm 13.0 S 11 18 1019.7 - 2.0 - Partly cloudy 10 - - - -
29/09:30pm 13.1 S 12 21 1019.8 - 2.0 - Partly cloudy 10 - - - -
29/09:00pm 13.3 S 13 22 1019.7 - 2.0 - Cloudy 10 - - - -
29/08:30pm 13.6 S 13 23 1019.9 - 2.0 - Partly cloudy 10 - - - -
29/08:00pm 14.1 S 16 30 1020.0 - 2.0 - Partly cloudy 10 - - - -
29/07:30pm 14.4 S 15 25 1019.8 - 2.0 - Partly cloudy 10 - - - -
29/07:00pm 14.0 S 15 28 1019.9 - 2.0 - Partly cloudy 10 - - - -
29/06:30pm 14.7 S 17 28 1019.8 - 2.0 - Partly cloudy 10 - - - -
29/06:09pm 15.1 S 15 26 1019.9 - 2.0 - Partly cloudy 10 - - - -
29/06:00pm 14.5 S 13 22 1019.8 - 2.0 - Cloudy 10 - - - -
29/05:30pm 15.4 S 15 29 1020.2 - 1.8 - Partly cloudy 10 - - - -
29/05:13pm 16.6 S 15 29 1020.3 - 1.8 - Partly cloudy 10 - - - -
29/05:00pm 16.5 CALM 0 0 1020.5 - 1.8 - Partly cloudy 10 - - - -
29/04:30pm 16.9 CALM 0 0 1020.5 - 1.8 - Partly cloudy 10 - - - -
29/04:00pm 16.5 CALM 0 0 1020.6 - 1.8 - Cloudy 10 - - - -
29/03:30pm 15.5 S 18 29 1021.1 - 1.8 - Partly cloudy 10 - - - -
29/03:02pm 17.1 S 15 25 1021.2 - 1.8 - Partly cloudy 10 - - - -
29/03:00pm 16.7 S 15 25 1021.1 - 1.8 - Cloudy 10 - - - -
29/02:30pm 16.6 S 17 31 1021.2 - 1.8 - Partly cloudy - - - - -
29/02:01pm 16.7 S 15 26 1021.3 - 1.8 - Partly cloudy - - - - -
29/02:00pm 17.0 S 14 26 1021.2 - 1.8 - Partly cloudy - - - - -
29/01:31pm 16.1 S 15 30 1021.4 - 1.8 - Partly cloudy - - - - -
29/01:30pm 16.4 S 14 30 1021.5 - 1.8 - Partly cloudy - - - - -
29/01:01pm 15.1 S 15 26 1021.6 - 1.8 - Partly cloudy - - - - -
29/01:00pm 15.0 S 15 23 1021.6 - 1.8 - Partly cloudy - - - - -
29/12:30pm 15.2 S 12 23 1021.7 - 1.8 - Partly cloudy - - - - -
29/12:00pm 14.3 S 11 21 1022.0 - 1.8 - Cloudy - - - - -
29/11:57am 14.3 S 11 23 1022.1 - 1.8 - Partly cloudy - - - - -
29/11:45am 13.6 S 10 19 1022.2 - 1.8 - Partly cloudy - - - - -
29/11:40am 13.5 S 10 19 1022.1 - 1.8 - Partly cloudy - - - - -
29/11:30am 13.2 S 11 18 1022.1 - 1.6 - Partly cloudy - - - - -
29/11:18am 13.5 S 14 23 1022.3 - 1.2 - Partly cloudy - - - - -
29/11:05am 14.4 S 12 21 1022.2 - 1.2 - Partly cloudy - - - - -
29/11:00am 14.1 S 13 21 1022.2 - 1.2 - Partly cloudy - - - - -
29/10:45am 13.4 S 12 20 1022.2 - 1.2 - Partly cloudy - - - - -
29/10:30am 13.2 S 11 20 1022.3 - 1.0 - Partly cloudy - - - - -
29/10:00am 12.1 S 10 19 1022.2 - 0.8 - Partly cloudy - - - - -
29/09:30am 11.9 S 11 21 1022.5 - 0.2 - Partly cloudy - - - - -
29/09:00am 13.5 S 10 20 1022.2 - 0.4 Drizzle Mostly cloudy 6 - - - -
29/08:30am 13.9 S 10 18 1022.0 - 0.4 - Cloudy - - - - -
29/08:00am 13.8 S 11 22 1021.8 - 0.4 - Cloudy - - - - -
29/07:30am 14.0 S 15 27 1021.6 - 0.4 - Partly cloudy - - - - -
29/07:00am 13.9 S 16 26 1021.4 - 0.4 - Partly cloudy - - - - -
29/06:31am 13.9 S 15 27 1021.1 - 0.4 - Partly cloudy - - - - -
29/06:30am 13.9 S 15 24 1021.1 - 0.4 - Partly cloudy - - - - -
29/06:14am 13.9 S 15 25 1021.2 - 0.4 - Partly cloudy - - - - -
29/06:00am 13.9 S 14 25 1021.2 - 0.4 - Cloudy - - - - -
29/05:42am 13.7 S 15 29 1021.2 - 0.4 - Partly cloudy - - - - -
29/05:30am 13.2 S 10 19 1021.3 - 0.4 - Cloudy - - - - -
29/05:00am 12.3 S 10 17 1021.1 - 0.4 - Partly cloudy - - - - -
29/04:30am 11.8 S 10 20 1021.1 - 0.2 - Partly cloudy - - - - -
29/04:00am 12.6 SSW 10 17 1021.0 - 0.0 - Partly cloudy - - - - -
29/03:30am 12.8 S 10 19 1021.3 - 0.0 - Partly cloudy - - - - -
29/03:00am 12.9 S 11 19 1021.4 - 0.0 - Cloudy - - - - -
29/02:30am 13.2 S 10 17 1021.6 - 0.0 - Partly cloudy - - - - -
29/02:00am 13.3 SSW 9 16 1021.8 - 0.0 - Partly cloudy - - - - -
29/01:30am 13.1 S 8 14 1022.2 - 0.0 - Partly cloudy - - - - -
29/01:00am 13.0 SSW 9 16 1022.3 - 0.0 - Partly cloudy - - - - -
29/12:30am 12.7 S 9 16 1022.7 - 0.0 - Partly cloudy - - - - -
29/12:00am 12.7 S 8 13 1022.6 - 0.0 - Cloudy - - - - -
 
Date/Time
EDT
Temp

°C
Wind Pressure Rain
since 9am
mm
Weather Cloud Vis
km
Sea
Height
m
Swell
Dir
 
Speed
knots
Gust
knots
hPa Trend Height
m
Period
s
Dir
28/11:30pm 12.8 SSW 8 14 1022.9 - 0.0 - Partly cloudy - - - - -
28/11:00pm 13.0 S 10 18 1023.3 - 0.0 - Partly cloudy - - - - -
28/10:30pm 12.7 SSW 8 13 1023.4 - 0.0 - Partly cloudy - - - - -
28/10:00pm 12.9 S 10 21 1023.4 - 0.0 - Partly cloudy 10 - - - -
28/09:30pm 13.3 SSW 9 15 1023.6 - 0.0 - Cloudy 10 - - - -
28/09:00pm 13.3 S 11 18 1023.1 - 0.0 - Cloudy 10 - - - -
28/08:30pm 13.7 S 8 16 1023.1 - 0.0 - Partly cloudy 10 - - - -
28/08:00pm 14.0 S 10 19 1023.1 - 0.0 - Partly cloudy 10 - - - -
28/07:30pm 14.2 S 12 22 1022.9 - 0.0 - Partly cloudy 10 - - - -
28/07:00pm 14.8 S 12 22 1022.8 - 0.0 - Partly cloudy 10 - - - -
28/06:30pm 15.9 S 13 22 1022.6 - 0.0 - Partly cloudy 10 - - - -
28/06:12pm 15.5 S 15 25 1022.5 - 0.0 - Partly cloudy 10 - - - -
28/06:00pm 15.3 S 14 23 1022.4 - 0.0 - Cloudy 10 - - - -
28/05:30pm 15.9 S 13 23 1022.5 - 0.0 - Partly cloudy 10 - - - -
28/05:22pm 16.5 S 14 24 1022.5 - - - Partly cloudy 10 - - - -
28/05:12pm 15.9 S 15 27 1022.5 - 0.0 - Partly cloudy 10 - - - -
28/05:00pm 16.9 S 10 20 1022.6 - 0.0 - Partly cloudy 10 - - - -
28/04:40pm 16.2 SSE 15 23 1022.7 - - - - - - - - -
28/04:00pm 15.8 SSE 15 25 1022.7 - - - - - - - - -
28/03:30pm 16.4 S 15 26 1022.6 - - - - - - - - -
28/03:00pm 16.6 S 16 31 1022.2 - - - - - - - - -
28/02:40pm 15.7 S 15 28 1022.4 - - - - - - - - -
28/02:30pm 15.7 SSE 15 24 1022.5 - 0.0 - Partly cloudy - - - - -
28/02:00pm 16.5 S 11 25 1022.6 - 0.0 - - - - - - -
28/01:30pm 16.2 S 12 23 1022.7 - 0.0 - - - - - - -
28/01:00pm 16.3 S 13 24 1022.7 - 0.0 - - - - - - -
28/12:34pm 15.0 S 15 26 1022.9 - 0.0 - - - - - - -
28/12:30pm 14.9 S 14 20 1022.8 - 0.0 - - - - - - -
28/12:00pm 16.1 S 13 23 1022.5 - 0.0 - - - - - - -

Other Formats:

Comma delimited format used in spreadsheet applications
http://www.bom.gov.au/fwo/IDT60701/IDT60701.95981.axf

JavaScript Object Notation format (JSON) in row-major order
http://www.bom.gov.au/fwo/IDT60701/IDT60701.95981.json